Time;durP1;ratioP1;P1;durP2;ratioP2;P2;SDS_P1;SDS_P2;PMS_P1;PMS_P2;Temp;Humidity;BMP_temperature;BMP_pressure;BME280_temperature;BME280_humidity;BME280_pressure;Samples;Min_cycle;Max_cycle;Signal;HPM_P1;HPM_P2
2021/06/10 00:01:23;;;;;;;4.28;2.15;;;18.40;64.50;;;;;;5070582;28;20512;-72
2021/06/10 00:03:49;;;;;;;5.50;2.15;;;18.40;64.80;;;;;;5072216;28;20031;-72
2021/06/10 00:06:14;;;;;;;4.47;2.30;;;18.30;64.80;;;;;;5054114;28;20428;-71
2021/06/10 00:08:40;;;;;;;4.45;2.03;;;18.30;65.00;;;;;;5069929;28;20539;-72
2021/06/10 00:11:06;;;;;;;4.15;2.35;;;18.30;65.00;;;;;;5071952;28;20025;-72
2021/06/10 00:13:31;;;;;;;5.63;2.10;;;18.30;65.20;;;;;;5053077;28;20028;-72
2021/06/10 00:15:57;;;;;;;4.45;2.08;;;18.30;65.20;;;;;;5070576;28;20166;-72
2021/06/10 00:18:23;;;;;;;6.65;3.05;;;18.20;65.30;;;;;;5069628;28;20033;-73
2021/06/10 00:20:49;;;;;;;3.60;2.70;;;18.20;65.60;;;;;;5071901;28;20530;-72
2021/06/10 00:23:15;;;;;;;5.13;2.30;;;18.20;65.70;;;;;;5070592;28;20029;-74
2021/06/10 00:25:40;;;;;;;4.07;2.17;;;18.10;65.60;;;;;;5070829;28;20127;-73
2021/06/10 00:28:06;;;;;;;5.32;2.78;;;18.10;65.60;;;;;;5071544;28;20115;-73
2021/06/10 00:30:33;;;;;;;5.32;2.25;;;18.00;65.60;;;;;;5069354;28;20490;-72
2021/06/10 00:33:00;;;;;;;6.70;2.58;;;18.00;65.60;;;;;;5053349;28;20115;-72
2021/06/10 00:35:26;;;;;;;2.65;2.40;;;17.90;65.60;;;;;;5052921;28;20032;-73
2021/06/10 00:37:56;;;;;;;4.35;3.03;;;17.90;65.70;;;;;;5071538;28;20074;-72
2021/06/10 00:40:22;;;;;;;4.47;2.33;;;17.80;66.00;;;;;;5069810;28;20032;-76
2021/06/10 00:42:48;;;;;;;3.45;2.92;;;17.80;66.10;;;;;;5071632;28;20063;-73
2021/06/10 00:45:17;;;;;;;3.90;2.50;;;17.80;66.20;;;;;;5053433;28;20063;-73
2021/06/10 00:47:44;;;;;;;3.85;2.63;;;17.70;66.30;;;;;;5070268;28;20049;-73
2021/06/10 00:50:10;;;;;;;3.67;2.72;;;17.60;66.50;;;;;;5069972;28;20067;-72
2021/06/10 00:52:38;;;;;;;4.93;2.33;;;17.50;67.00;;;;;;5068468;28;20132;-72
2021/06/10 00:55:05;;;;;;;2.65;2.33;;;17.50;67.10;;;;;;5070257;28;20047;-72
2021/06/10 00:57:31;;;;;;;4.25;2.50;;;17.50;67.10;;;;;;5070785;28;20447;-72
2021/06/10 00:59:57;;;;;;;4.18;2.55;;;17.50;67.20;;;;;;5070734;28;20105;-72
2021/06/10 01:02:23;;;;;;;4.65;2.80;;;17.50;67.10;;;;;;5070739;28;20032;-75
2021/06/10 01:04:48;;;;;;;3.63;2.40;;;17.50;67.20;;;;;;5069568;28;20024;-72
2021/06/10 01:07:52;;;;;;;3.58;2.70;;;17.40;67.30;;;;;;5070777;28;20090;-72
2021/06/10 01:10:51;;;;;;;3.13;2.50;;;17.30;67.70;;;;;;5076730;28;20024;-71
2021/06/10 01:13:19;;;;;;;5.57;2.90;;;17.30;67.70;;;;;;5074788;28;20113;-72
2021/06/10 01:15:51;;;;;;;3.47;2.95;;;17.20;67.90;;;;;;5074008;28;20028;-73
2021/06/10 01:18:18;;;;;;;4.15;2.90;;;17.20;67.90;;;;;;5074348;28;20028;-72
2021/06/10 01:20:44;;;;;;;4.60;3.03;;;17.20;68.00;;;;;;5073766;28;20020;-71
2021/06/10 01:23:41;;;;;;;5.68;2.80;;;17.10;68.20;;;;;;5073558;28;20070;-72
2021/06/10 01:26:28;;;;;;;2.85;2.38;;;17.10;68.50;;;;;;5074562;28;20040;-72
2021/06/10 01:28:55;;;;;;;4.78;2.95;;;17.00;68.60;;;;;;5074574;28;20024;-72
2021/06/10 01:31:21;;;;;;;5.73;2.97;;;17.00;68.80;;;;;;5073265;28;20078;-72
2021/06/10 01:33:54;;;;;;;2.60;2.35;;;17.00;68.80;;;;;;5072364;28;20032;-72
2021/06/10 01:36:27;;;;;;;3.75;2.95;;;17.00;68.90;;;;;;5073900;28;20457;-73
2021/06/10 01:38:57;;;;;;;6.88;3.47;;;17.00;68.90;;;;;;5073090;28;20031;-73
2021/06/10 01:41:24;;;;;;;4.97;3.20;;;17.00;68.80;;;;;;5074419;28;20503;-72
2021/06/10 01:43:51;;;;;;;6.35;3.25;;;17.00;68.70;;;;;;5073166;28;20067;-73
2021/06/10 01:46:18;;;;;;;5.40;3.42;;;17.10;68.70;;;;;;5074172;28;20082;-74
2021/06/10 01:48:46;;;;;;;6.65;3.63;;;17.10;68.70;;;;;;5071222;28;20088;-72
2021/06/10 01:51:15;;;;;;;5.95;3.35;;;17.10;68.60;;;;;;5073363;28;20031;-73
2021/06/10 01:53:43;;;;;;;5.93;3.78;;;17.10;68.50;;;;;;5073323;28;20031;-73
2021/06/10 01:56:10;;;;;;;6.22;3.75;;;17.10;68.60;;;;;;5073045;28;20119;-71
2021/06/10 01:58:38;;;;;;;4.85;3.55;;;17.00;68.60;;;;;;5071904;28;20036;-72
2021/06/10 02:01:06;;;;;;;7.43;3.92;;;17.00;68.70;;;;;;5074352;28;20028;-72
2021/06/10 02:03:32;;;;;;;4.97;3.70;;;17.00;68.90;;;;;;5071890;28;20037;-77
2021/06/10 02:06:00;;;;;;;4.80;3.88;;;17.00;68.90;;;;;;5072916;28;20031;-71
2021/06/10 02:08:26;;;;;;;6.00;3.40;;;17.00;69.00;;;;;;5073582;28;20036;-72
2021/06/10 02:10:55;;;;;;;6.45;3.78;;;17.00;69.00;;;;;;5071923;28;20032;-71
2021/06/10 02:13:26;;;;;;;7.32;3.85;;;16.90;69.00;;;;;;5072243;28;20029;-73
2021/06/10 02:15:54;;;;;;;4.68;3.65;;;16.90;69.20;;;;;;5073082;28;20036;-72
2021/06/10 02:18:20;;;;;;;5.03;3.80;;;16.90;69.50;;;;;;5072937;28;20119;-73
2021/06/10 02:20:46;;;;;;;4.10;3.67;;;16.80;69.60;;;;;;5071129;28;20070;-72
2021/06/10 02:23:11;;;;;;;4.32;3.63;;;16.80;69.70;;;;;;5073488;28;20032;-72
2021/06/10 02:25:37;;;;;;;4.95;3.67;;;16.70;69.80;;;;;;5071663;28;20032;-72
2021/06/10 02:28:04;;;;;;;5.07;3.80;;;16.70;69.90;;;;;;5073636;28;20029;-72
2021/06/10 02:30:31;;;;;;;6.32;4.55;;;16.70;70.00;;;;;;5073303;28;20174;-77
2021/06/10 02:32:57;;;;;;;5.85;4.30;;;16.70;70.10;;;;;;5072888;28;20033;-71
2021/06/10 02:35:23;;;;;;;7.35;4.18;;;16.70;70.20;;;;;;5072208;28;20027;-71
2021/06/10 02:37:51;;;;;;;5.68;4.05;;;16.70;70.20;;;;;;5071235;28;20025;-72
2021/06/10 02:40:26;;;;;;;6.05;4.30;;;16.70;70.30;;;;;;5071837;28;20538;-72
2021/06/10 02:42:54;;;;;;;4.85;4.32;;;16.70;70.40;;;;;;5072292;28;20036;-72
2021/06/10 02:45:20;;;;;;;5.57;4.88;;;16.70;70.40;;;;;;5072804;28;20105;-72
2021/06/10 02:47:47;;;;;;;6.28;4.25;;;16.70;70.40;;;;;;5070929;28;20079;-72
2021/06/10 02:50:17;;;;;;;7.53;4.38;;;16.70;70.50;;;;;;5071947;28;20027;-72
2021/06/10 02:52:48;;;;;;;5.65;4.45;;;16.60;70.50;;;;;;5072339;28;20472;-73
2021/06/10 02:55:18;;;;;;;6.78;4.70;;;16.60;70.80;;;;;;5073035;28;20090;-72
2021/06/10 02:57:50;;;;;;;6.15;4.82;;;16.50;70.90;;;;;;5071927;28;20021;-72
2021/06/10 03:00:18;;;;;;;5.45;4.93;;;16.50;70.80;;;;;;5072707;28;20082;-74
2021/06/10 03:02:44;;;;;;;5.32;4.70;;;16.50;70.90;;;;;;5071466;28;20103;-72
2021/06/10 03:05:11;;;;;;;4.65;4.25;;;16.50;71.00;;;;;;5071929;28;20119;-73
2021/06/10 03:07:37;;;;;;;7.78;5.20;;;16.50;71.10;;;;;;5072580;28;20024;-76
2021/06/10 03:10:09;;;;;;;5.72;5.20;;;16.50;71.00;;;;;;5071529;28;20385;-72
2021/06/10 03:12:36;;;;;;;6.63;5.18;;;16.50;70.80;;;;;;5073529;28;20036;-75
2021/06/10 03:15:03;;;;;;;7.68;5.45;;;16.50;70.70;;;;;;5072504;28;20024;-72
2021/06/10 03:17:29;;;;;;;6.03;4.90;;;16.50;70.80;;;;;;5071278;28;20392;-72
2021/06/10 03:19:56;;;;;;;8.35;5.35;;;16.40;70.70;;;;;;5070053;28;20794;-73
2021/06/10 03:22:22;;;;;;;7.88;5.93;;;16.40;70.90;;;;;;5050592;28;20040;-73
2021/06/10 03:24:50;;;;;;;8.52;5.75;;;16.40;70.90;;;;;;5051416;28;20037;-73
2021/06/10 03:27:16;;;;;;;6.47;5.05;;;16.40;71.00;;;;;;5067647;28;20024;-72
2021/06/10 03:29:42;;;;;;;9.13;6.13;;;16.40;71.00;;;;;;5050216;28;20021;-73
2021/06/10 03:32:09;;;;;;;7.32;6.13;;;16.30;71.00;;;;;;5051129;28;20044;-72
2021/06/10 03:34:35;;;;;;;8.52;6.07;;;16.30;71.30;;;;;;5067742;28;20037;-72
2021/06/10 03:37:02;;;;;;;8.23;5.68;;;16.30;71.40;;;;;;5051521;28;20087;-73
2021/06/10 03:39:29;;;;;;;6.88;5.45;;;16.30;71.30;;;;;;5069370;28;20120;-72
2021/06/10 03:41:55;;;;;;;8.02;5.57;;;16.30;71.40;;;;;;5071177;28;20032;-73
2021/06/10 03:44:23;;;;;;;9.13;5.68;;;16.30;71.50;;;;;;5070739;28;20452;-73
2021/06/10 03:46:49;;;;;;;7.68;6.85;;;16.20;71.50;;;;;;5066066;28;20056;-72
2021/06/10 03:49:15;;;;;;;7.38;6.45;;;16.20;71.80;;;;;;5050779;28;20032;-72
2021/06/10 03:51:41;;;;;;;7.07;5.80;;;16.00;71.90;;;;;;5051618;28;20021;-76
2021/06/10 03:54:07;;;;;;;8.07;6.05;;;16.00;72.10;;;;;;5050654;28;20428;-72
2021/06/10 03:56:34;;;;;;;6.78;5.30;;;16.20;72.10;;;;;;5050969;28;20362;-72
2021/06/10 03:59:00;;;;;;;5.65;5.03;;;16.50;71.30;;;;;;5065667;28;20496;-73
2021/06/10 04:01:26;;;;;;;6.32;5.28;;;16.90;70.40;;;;;;5070702;28;20531;-72
2021/06/10 04:03:52;;;;;;;7.38;5.32;;;17.10;70.00;;;;;;5071166;28;20036;-72
2021/06/10 04:06:19;;;;;;;7.30;5.40;;;17.00;69.70;;;;;;5054117;28;20444;-72
2021/06/10 04:08:45;;;;;;;7.20;5.63;;;17.00;69.90;;;;;;5053320;28;20431;-73
2021/06/10 04:11:11;;;;;;;7.63;6.07;;;17.00;69.60;;;;;;5070451;28;20037;-72
2021/06/10 04:13:36;;;;;;;7.20;5.97;;;17.10;69.60;;;;;;5071115;28;20119;-72
2021/06/10 04:16:02;;;;;;;7.40;6.70;;;17.30;69.20;;;;;;5070372;28;20088;-72
2021/06/10 04:18:28;;;;;;;7.18;6.47;;;17.60;68.30;;;;;;5050283;28;20086;-72
2021/06/10 04:20:53;;;;;;;7.15;5.75;;;18.10;67.40;;;;;;5049537;28;20029;-72
2021/06/10 04:23:19;;;;;;;7.10;6.40;;;19.20;65.40;;;;;;5051649;28;20048;-72
2021/06/10 04:25:45;;;;;;;9.30;6.90;;;20.40;62.80;;;;;;5050009;28;20033;-75
2021/06/10 04:28:11;;;;;;;8.32;6.32;;;21.30;59.90;;;;;;5051419;28;20036;-72
2021/06/10 04:30:37;;;;;;;7.95;5.68;;;22.10;57.30;;;;;;5050611;28;20030;-73
2021/06/10 04:33:03;;;;;;;7.78;5.68;;;22.70;55.20;;;;;;5050958;28;20040;-72
2021/06/10 04:35:29;;;;;;;6.05;5.40;;;23.30;53.70;;;;;;5050609;28;20029;-71
2021/06/10 04:37:54;;;;;;;5.75;5.13;;;23.70;52.70;;;;;;5060077;28;20063;-71
2021/06/10 04:40:20;;;;;;;6.95;4.70;;;24.20;51.60;;;;;;5070430;28;20032;-70
2021/06/10 04:42:46;;;;;;;6.47;4.85;;;24.40;50.90;;;;;;5072114;28;21699;-75
2021/06/10 04:45:12;;;;;;;4.63;4.32;;;24.60;50.30;;;;;;5073994;28;20119;-72
2021/06/10 04:47:38;;;;;;;4.45;4.05;;;25.00;49.50;;;;;;5073998;28;20048;-72
2021/06/10 04:50:05;;;;;;;4.88;4.20;;;25.50;48.90;;;;;;5074538;28;20187;-72
2021/06/10 04:52:31;;;;;;;4.95;4.45;;;26.00;47.90;;;;;;5075177;28;20029;-72
2021/06/10 04:54:57;;;;;;;5.32;4.38;;;26.50;46.90;;;;;;5073449;28;20032;-71
2021/06/10 04:57:22;;;;;;;6.10;4.22;;;26.80;46.20;;;;;;5074046;28;20109;-72
2021/06/10 04:59:48;;;;;;;6.60;4.30;;;27.10;45.80;;;;;;5073342;28;20055;-76
2021/06/10 05:02:13;;;;;;;5.03;4.45;;;27.30;45.50;;;;;;5074993;28;20088;-71
2021/06/10 05:04:39;;;;;;;5.25;3.78;;;27.60;45.00;;;;;;5081438;28;20093;-71
2021/06/10 05:07:05;;;;;;;5.30;4.10;;;28.00;44.20;;;;;;5094884;28;20028;-72
2021/06/10 05:09:30;;;;;;;4.43;4.00;;;28.30;43.60;;;;;;5095757;28;20043;-71
2021/06/10 05:11:56;;;;;;;5.13;3.85;;;28.50;43.30;;;;;;5077876;28;20534;-71
2021/06/10 05:14:22;;;;;;;6.40;4.05;;;28.80;43.00;;;;;;5075224;28;20376;-71
2021/06/10 05:16:49;;;;;;;5.90;4.22;;;29.00;42.40;;;;;;5073598;28;20432;-76
2021/06/10 05:19:15;;;;;;;5.85;4.20;;;29.20;42.30;;;;;;5073496;28;20033;-70
2021/06/10 05:21:41;;;;;;;6.00;4.50;;;29.50;42.10;;;;;;5056829;28;20029;-73
2021/06/10 05:24:08;;;;;;;7.97;4.03;;;29.70;41.40;;;;;;5072338;28;20036;-71
2021/06/10 05:26:35;;;;;;;6.18;4.50;;;30.00;41.30;;;;;;5074871;28;20044;-71
2021/06/10 05:29:02;;;;;;;5.07;4.57;;;30.20;40.50;;;;;;5072476;28;20029;-72
2021/06/10 05:31:28;;;;;;;8.48;6.13;;;30.30;40.20;;;;;;5073025;28;20111;-72
2021/06/10 05:33:54;;;;;;;7.47;6.25;;;30.00;40.10;;;;;;5061903;28;20570;-74
2021/06/10 05:36:19;;;;;;;6.38;5.70;;;30.00;40.60;;;;;;5083864;28;20099;-72
2021/06/10 05:38:45;;;;;;;6.93;5.13;;;30.20;40.80;;;;;;5067482;28;20104;-73
2021/06/10 05:41:11;;;;;;;6.60;4.90;;;30.10;39.80;;;;;;5076777;28;20617;-74
2021/06/10 05:43:37;;;;;;;8.43;5.30;;;29.90;40.60;;;;;;5063187;28;20123;-71
2021/06/10 05:46:03;;;;;;;6.32;5.25;;;30.00;40.90;;;;;;5057204;28;20040;-72
2021/06/10 05:48:29;;;;;;;6.97;4.72;;;30.00;40.70;;;;;;5062239;28;20049;-73
2021/06/10 05:50:55;;;;;;;5.60;5.10;;;30.30;40.60;;;;;;5045878;28;20119;-77
2021/06/10 05:53:21;;;;;;;6.10;5.50;;;30.40;39.10;;;;;;5069148;28;20496;-72
2021/06/10 05:55:47;;;;;;;7.70;5.28;;;30.40;40.10;;;;;;5060102;28;20024;-75
2021/06/10 05:58:14;;;;;;;6.65;6.03;;;30.60;39.70;;;;;;5058471;28;20017;-71
2021/06/10 06:00:40;;;;;;;7.05;4.95;;;30.70;39.00;;;;;;5070403;28;20039;-72
2021/06/10 06:03:07;;;;;;;5.30;4.90;;;30.80;39.90;;;;;;5071512;28;20376;-72
2021/06/10 06:05:33;;;;;;;6.88;5.65;;;31.30;39.60;;;;;;5071632;28;20025;-72
2021/06/10 06:07:59;;;;;;;5.80;5.18;;;31.50;38.30;;;;;;5070987;28;20036;-72
2021/06/10 06:10:27;;;;;;;6.22;5.65;;;31.60;38.70;;;;;;5074755;28;20043;-71
2021/06/10 06:12:56;;;;;;;5.90;5.10;;;31.70;38.70;;;;;;5077084;28;20033;-74
2021/06/10 06:15:21;;;;;;;5.60;4.97;;;31.70;38.10;;;;;;5059571;28;20121;-71
2021/06/10 06:17:47;;;;;;;5.55;4.40;;;31.80;38.20;;;;;;5071886;28;20048;-71
2021/06/10 06:20:14;;;;;;;4.88;4.40;;;32.20;38.50;;;;;;5051970;28;20373;-72
2021/06/10 06:22:42;;;;;;;8.10;5.55;;;32.80;38.20;;;;;;5072282;28;20101;-71
2021/06/10 06:25:13;;;;;;;5.82;4.10;;;33.20;36.70;;;;;;5070370;28;20042;-71
2021/06/10 06:27:39;;;;;;;5.88;3.80;;;33.10;36.30;;;;;;5070421;28;20029;-72
2021/06/10 06:30:07;;;;;;;5.55;4.00;;;33.10;36.50;;;;;;5056166;28;20043;-73
2021/06/10 06:32:36;;;;;;;7.07;4.80;;;33.60;36.40;;;;;;5066033;28;20029;-71
2021/06/10 06:35:06;;;;;;;6.82;4.80;;;33.80;35.80;;;;;;5052434;28;20107;-72
2021/06/10 06:37:33;;;;;;;6.28;4.80;;;34.00;35.70;;;;;;5057635;28;20052;-73
2021/06/10 06:39:58;;;;;;;6.18;4.30;;;34.00;35.80;;;;;;5070391;28;20033;-76
2021/06/10 06:42:24;;;;;;;4.60;4.20;;;34.00;35.30;;;;;;5072336;28;20051;-72
2021/06/10 06:44:51;;;;;;;5.82;4.40;;;34.10;35.20;;;;;;5070496;28;20039;-72
2021/06/10 06:47:16;;;;;;;5.05;4.15;;;34.40;34.90;;;;;;5063133;28;20086;-72
2021/06/10 06:49:42;;;;;;;5.45;4.60;;;34.60;34.80;;;;;;5055896;28;20037;-72
2021/06/10 06:52:08;;;;;;;6.15;4.93;;;34.60;34.80;;;;;;5062385;28;20036;-72
2021/06/10 06:54:33;;;;;;;4.97;4.50;;;34.60;35.00;;;;;;5071716;28;20098;-72
2021/06/10 06:56:59;;;;;;;6.97;4.30;;;34.70;34.30;;;;;;5070406;28;20024;-76
2021/06/10 06:59:25;;;;;;;6.28;4.72;;;34.90;33.80;;;;;;5079362;28;20095;-71
2021/06/10 07:01:50;;;;;;;6.75;5.05;;;35.20;33.70;;;;;;5077874;28;20032;-72
2021/06/10 07:04:16;;;;;;;5.82;4.30;;;35.20;33.80;;;;;;5059082;28;20505;-73
2021/06/10 07:06:42;;;;;;;7.85;4.28;;;34.90;33.10;;;;;;5067986;28;20176;-72
2021/06/10 07:09:08;;;;;;;6.38;4.03;;;34.80;33.90;;;;;;5053276;28;20343;-72
2021/06/10 07:11:34;;;;;;;3.72;3.42;;;35.10;33.60;;;;;;5052849;28;20028;-72
2021/06/10 07:14:01;;;;;;;5.32;3.25;;;35.30;33.30;;;;;;5058966;28;20066;-76
2021/06/10 07:16:26;;;;;;;3.75;3.42;;;35.50;32.50;;;;;;5061892;28;20031;-73
2021/06/10 07:18:52;;;;;;;5.78;3.72;;;35.50;32.40;;;;;;5050208;28;20389;-74
2021/06/10 07:21:18;;;;;;;4.43;3.75;;;35.70;32.10;;;;;;5069817;28;20554;-73
2021/06/10 07:23:43;;;;;;;6.78;3.40;;;35.50;32.20;;;;;;5068576;28;20036;-72
2021/06/10 07:26:09;;;;;;;7.82;4.95;;;35.00;32.20;;;;;;5066052;28;20107;-72
2021/06/10 07:28:35;;;;;;;4.50;2.28;;;34.70;31.90;;;;;;5051189;28;20086;-72
2021/06/10 07:31:00;;;;;;;4.75;2.65;;;34.00;32.70;;;;;;5051289;28;20385;-73
2021/06/10 07:33:26;;;;;;;3.25;2.80;;;34.20;33.30;;;;;;5060658;28;20032;-72
2021/06/10 07:35:52;;;;;;;3.95;1.67;;;34.10;31.50;;;;;;5070812;28;20037;-72
2021/06/10 07:38:17;;;;;;;3.03;2.72;;;34.10;33.20;;;;;;5064819;28;20056;-72
2021/06/10 07:40:43;;;;;;;4.45;2.78;;;34.60;32.60;;;;;;5071051;28;20521;-74
2021/06/10 07:43:09;;;;;;;3.13;2.88;;;34.80;32.80;;;;;;5068910;28;20060;-73
2021/06/10 07:45:36;;;;;;;6.50;2.80;;;34.70;31.70;;;;;;5061187;28;20095;-74
2021/06/10 07:48:04;;;;;;;3.95;2.30;;;34.40;31.70;;;;;;5059750;28;20116;-72
2021/06/10 07:50:29;;;;;;;2.38;1.83;;;34.10;32.80;;;;;;5062676;28;20086;-73
2021/06/10 07:52:55;;;;;;;3.90;3.45;;;34.10;32.90;;;;;;5064492;28;20033;-76
2021/06/10 07:55:21;;;;;;;2.92;2.20;;;34.00;32.80;;;;;;5070079;28;20029;-73
2021/06/10 07:57:48;;;;;;;4.88;2.80;;;33.70;33.40;;;;;;5070342;28;20075;-72
2021/06/10 08:00:14;;;;;;;2.42;1.50;;;33.40;33.20;;;;;;5064684;28;20750;-72
2021/06/10 08:02:41;;;;;;;1.67;1.48;;;33.10;34.60;;;;;;5059694;28;20119;-72
2021/06/10 08:05:07;;;;;;;4.25;2.38;;;33.50;34.30;;;;;;5067833;28;20120;-77
2021/06/10 08:07:34;;;;;;;2.50;2.15;;;34.10;33.80;;;;;;5068019;28;20078;-72
2021/06/10 08:09:59;;;;;;;2.20;1.40;;;34.40;34.40;;;;;;5067113;28;20102;-72
2021/06/10 08:12:25;;;;;;;2.58;1.35;;;34.80;33.30;;;;;;5069786;28;20028;-72
2021/06/10 08:14:51;;;;;;;3.88;1.35;;;35.30;32.70;;;;;;5069805;28;20040;-72
2021/06/10 08:17:17;;;;;;;4.68;1.58;;;35.90;31.90;;;;;;5062638;28;20478;-72
2021/06/10 08:19:43;;;;;;;3.10;1.63;;;36.30;31.60;;;;;;5051949;28;20037;-72
2021/06/10 08:22:09;;;;;;;2.38;1.75;;;36.70;31.10;;;;;;5067675;28;20032;-76
2021/06/10 08:24:35;;;;;;;3.65;1.60;;;36.70;30.30;;;;;;5055981;28;20021;-72
2021/06/10 08:27:01;;;;;;;3.85;1.52;;;36.40;31.30;;;;;;5070758;28;20146;-72
2021/06/10 08:29:28;;;;;;;3.20;1.55;;;36.10;31.30;;;;;;5065369;28;20836;-73
2021/06/10 08:31:55;;;;;;;5.93;1.50;;;35.70;31.80;;;;;;5050940;28;20398;-72
2021/06/10 08:34:22;;;;;;;2.60;1.30;;;35.50;31.40;;;;;;5050407;28;20392;-72
2021/06/10 08:36:49;;;;;;;3.70;1.65;;;35.80;31.80;;;;;;5054167;28;20036;-72
2021/06/10 08:39:15;;;;;;;4.40;1.75;;;36.00;31.30;;;;;;5068374;28;20123;-72
2021/06/10 08:41:41;;;;;;;4.30;2.17;;;36.10;31.40;;;;;;5069910;28;20086;-72
2021/06/10 08:44:07;;;;;;;4.60;2.47;;;36.40;30.60;;;;;;5055963;28;20025;-72
2021/06/10 08:46:35;;;;;;;4.65;2.03;;;35.90;30.50;;;;;;5050826;28;20036;-72
2021/06/10 08:49:01;;;;;;;4.47;2.13;;;35.70;31.40;;;;;;5051385;28;20083;-72
2021/06/10 08:51:27;;;;;;;3.03;2.13;;;35.80;31.50;;;;;;5060298;28;20054;-72
2021/06/10 08:53:56;;;;;;;5.50;2.78;;;36.00;31.10;;;;;;5056802;28;20651;-72
2021/06/10 08:56:23;;;;;;;3.72;1.90;;;36.20;30.70;;;;;;5050118;28;20032;-72
2021/06/10 08:58:49;;;;;;;2.95;2.00;;;36.30;31.10;;;;;;5051293;28;20021;-73
2021/06/10 09:01:16;;;;;;;1.63;1.25;;;36.40;31.00;;;;;;5061574;28;20039;-75
2021/06/10 09:03:42;;;;;;;3.22;1.90;;;36.30;30.70;;;;;;5063045;28;20037;-72
2021/06/10 09:06:17;;;;;;;3.00;1.80;;;36.50;30.40;;;;;;5051561;28;20385;-72
2021/06/10 09:08:45;;;;;;;3.80;1.58;;;36.40;30.40;;;;;;5068188;28;20039;-72
2021/06/10 09:11:18;;;;;;;3.28;1.48;;;36.10;30.90;;;;;;5065357;28;20025;-72
2021/06/10 09:13:48;;;;;;;2.15;1.35;;;36.30;31.10;;;;;;5064413;28;20131;-72
2021/06/10 09:16:25;;;;;;;2.72;1.48;;;36.80;30.70;;;;;;5071139;28;20056;-78
2021/06/10 09:19:01;;;;;;;3.65;1.38;;;36.70;30.30;;;;;;5069393;28;20060;-72
2021/06/10 09:21:41;;;;;;;1.60;0.80;;;36.60;30.10;;;;;;5058009;28;20409;-72
2021/06/10 09:24:33;;;;;;;2.95;1.58;;;36.80;30.70;;;;;;5051153;28;20029;-72
2021/06/10 09:27:07;;;;;;;2.97;2.30;;;37.30;30.10;;;;;;5052704;28;20049;-72
2021/06/10 09:29:43;;;;;;;4.55;1.92;;;37.50;29.60;;;;;;5071358;28;20101;-71
2021/06/10 09:32:19;;;;;;;2.92;1.70;;;37.00;30.30;;;;;;5086191;28;20044;-71
2021/06/10 09:34:48;;;;;;;3.53;1.88;;;36.60;31.00;;;;;;5080297;28;20036;-71
2021/06/10 09:37:23;;;;;;;6.57;2.08;;;36.60;31.20;;;;;;5073973;28;20028;-74
2021/06/10 09:39:52;;;;;;;3.45;1.75;;;36.80;31.00;;;;;;5071843;28;20028;-72
2021/06/10 09:42:27;;;;;;;5.88;2.03;;;37.00;31.30;;;;;;5072020;28;20103;-77
2021/06/10 09:44:58;;;;;;;4.18;3.10;;;37.20;31.10;;;;;;5069937;28;20025;-73
2021/06/10 09:47:37;;;;;;;4.68;2.35;;;37.30;30.80;;;;;;5073172;28;20607;-71
2021/06/10 09:50:24;;;;;;;3.67;2.15;;;37.20;31.20;;;;;;5072628;28;20035;-71
2021/06/10 09:53:05;;;;;;;3.15;1.92;;;37.10;31.50;;;;;;5066508;28;20051;-73
2021/06/10 09:55:45;;;;;;;2.55;1.55;;;37.20;31.60;;;;;;5071234;28;20039;-72
2021/06/10 09:58:14;;;;;;;3.53;1.92;;;37.10;31.30;;;;;;5069874;28;20032;-71
2021/06/10 10:00:47;;;;;;;3.50;1.63;;;37.00;31.90;;;;;;5057561;28;20554;-72
2021/06/10 10:03:28;;;;;;;2.22;1.20;;;37.00;32.20;;;;;;5069731;28;20114;-72
2021/06/10 10:06:00;;;;;;;4.57;1.63;;;37.00;32.00;;;;;;5063919;28;20033;-72
2021/06/10 10:08:28;;;;;;;2.38;1.73;;;37.10;32.00;;;;;;5071630;28;20491;-73
2021/06/10 10:11:03;;;;;;;1.85;0.85;;;37.00;32.00;;;;;;5074128;28;20119;-71
2021/06/10 10:13:30;;;;;;;2.70;0.80;;;36.80;32.10;;;;;;5071524;28;20028;-72
2021/06/10 10:16:01;;;;;;;1.20;0.80;;;36.70;31.90;;;;;;5072961;28;20461;-71
2021/06/10 10:18:27;;;;;;;1.87;0.93;;;36.80;32.20;;;;;;5052899;28;20095;-72
2021/06/10 10:20:56;;;;;;;3.67;1.40;;;36.80;32.00;;;;;;5069223;28;20025;-71
2021/06/10 10:23:22;;;;;;;3.47;1.60;;;36.80;31.90;;;;;;5071125;28;20025;-77
2021/06/10 10:25:51;;;;;;;3.13;1.35;;;36.60;32.30;;;;;;5073622;28;20024;-72
2021/06/10 10:28:17;;;;;;;4.40;1.50;;;36.30;32.80;;;;;;5068631;28;20033;-72
2021/06/10 10:30:45;;;;;;;3.00;1.98;;;36.10;33.00;;;;;;5051688;28;20029;-72
2021/06/10 10:33:22;;;;;;;2.70;1.35;;;36.00;33.10;;;;;;5054113;28;20025;-73
2021/06/10 10:35:57;;;;;;;5.18;2.30;;;35.90;33.20;;;;;;5073119;28;20020;-72
2021/06/10 10:38:34;;;;;;;2.70;1.70;;;35.70;33.40;;;;;;5080770;28;20111;-77
2021/06/10 10:41:05;;;;;;;2.90;1.50;;;35.60;33.80;;;;;;5052611;28;20021;-72
2021/06/10 10:43:31;;;;;;;2.95;1.88;;;35.60;34.00;;;;;;5052355;28;20068;-73
2021/06/10 10:46:08;;;;;;;3.17;1.80;;;35.50;34.00;;;;;;5053461;28;20028;-73
2021/06/10 10:48:36;;;;;;;3.60;1.80;;;35.40;33.90;;;;;;5068902;28;20048;-74
2021/06/10 10:51:30;;;;;;;2.63;1.98;;;35.50;33.60;;;;;;5073379;28;20021;-72
2021/06/10 10:53:59;;;;;;;3.13;1.60;;;35.60;34.00;;;;;;5056190;28;20028;-72
2021/06/10 10:56:43;;;;;;;2.08;1.20;;;35.40;33.50;;;;;;5071130;28;20045;-77
2021/06/10 10:59:19;;;;;;;1.70;0.90;;;35.20;33.40;;;;;;5069155;28;20461;-72
2021/06/10 11:02:07;;;;;;;3.92;0.98;;;35.10;33.50;;;;;;5071882;28;20028;-73
2021/06/10 11:04:56;;;;;;;2.28;0.88;;;35.20;33.60;;;;;;5070890;28;20032;-71
2021/06/10 11:07:38;;;;;;;1.70;0.70;;;35.40;33.30;;;;;;5069007;28;20464;-72
2021/06/10 11:10:07;;;;;;;;;;;35.60;32.50;;;;;;5052276;28;20041;-73
2021/06/10 11:12:44;;;;;;;3.10;1.30;;;35.60;33.40;;;;;;5067372;28;20022;-72
2021/06/10 11:15:22;;;;;;;3.38;0.98;;;35.30;33.40;;;;;;5070043;28;20075;-72
2021/06/10 11:17:50;;;;;;;1.95;0.75;;;34.90;34.10;;;;;;5070193;28;20060;-73
2021/06/10 11:20:17;;;;;;;1.13;0.80;;;34.80;33.80;;;;;;5071412;28;20388;-72
2021/06/10 11:22:51;;;;;;;1.00;0.70;;;34.90;33.60;;;;;;5071809;28;20075;-72
2021/06/10 11:25:26;;;;;;;4.60;0.98;;;35.00;33.80;;;;;;5049958;28;20029;-72
2021/06/10 11:27:54;;;;;;;2.85;1.10;;;35.20;33.50;;;;;;5052246;28;20025;-72
2021/06/10 11:30:25;;;;;;;2.17;0.90;;;35.20;33.20;;;;;;5054434;28;20029;-73
2021/06/10 11:33:07;;;;;;;1.77;0.80;;;35.00;32.90;;;;;;5066367;28;20037;-73
2021/06/10 11:35:46;;;;;;;1.65;0.90;;;34.90;34.20;;;;;;5066753;28;20536;-73
2021/06/10 11:38:18;;;;;;;2.13;0.90;;;35.10;34.00;;;;;;5055202;28;20028;-71
2021/06/10 11:41:05;;;;;;;3.00;0.80;;;35.20;33.40;;;;;;5068551;28;20038;-72
2021/06/10 11:43:33;;;;;;;1.88;0.70;;;35.40;33.60;;;;;;5062681;28;20029;-76
2021/06/10 11:46:07;;;;;;;0.82;0.50;;;35.90;32.70;;;;;;5071426;28;20028;-73
2021/06/10 11:48:35;;;;;;;1.58;0.68;;;36.20;32.70;;;;;;5068159;28;20036;-73
2021/06/10 11:51:01;;;;;;;1.42;0.60;;;36.40;32.10;;;;;;5070965;28;20031;-72
2021/06/10 11:53:30;;;;;;;4.05;0.70;;;36.10;31.80;;;;;;5066138;28;20033;-72
2021/06/10 11:55:58;;;;;;;1.30;0.80;;;35.40;32.00;;;;;;5059686;28;20025;-72
2021/06/10 11:58:30;;;;;;;2.92;0.75;;;35.10;33.30;;;;;;5052112;28;20481;-72
2021/06/10 12:01:04;;;;;;;1.63;0.63;;;35.20;33.10;;;;;;5051201;28;20025;-74
2021/06/10 12:03:34;;;;;;;1.77;0.70;;;35.40;32.80;;;;;;5054827;28;20029;-75
2021/06/10 12:06:00;;;;;;;1.38;0.65;;;35.60;32.30;;;;;;5070619;28;20078;-73
2021/06/10 12:08:27;;;;;;;2.13;0.77;;;35.80;32.20;;;;;;5059840;28;20036;-72
2021/06/10 12:10:57;;;;;;;2.25;0.60;;;36.00;32.50;;;;;;5067494;28;20455;-72
2021/06/10 12:13:32;;;;;;;1.45;1.00;;;36.30;32.50;;;;;;5058944;28;20029;-72
2021/06/10 12:16:00;;;;;;;1.67;0.80;;;36.40;31.90;;;;;;5052065;28;20120;-72
2021/06/10 12:18:27;;;;;;;4.03;0.60;;;36.00;32.10;;;;;;5067396;28;20116;-72
2021/06/10 12:20:55;;;;;;;1.98;0.60;;;35.80;32.50;;;;;;5067413;28;20477;-72
2021/06/10 12:23:26;;;;;;;2.15;0.75;;;35.60;32.60;;;;;;5067503;28;20029;-72
2021/06/10 12:25:53;;;;;;;1.30;0.75;;;35.60;32.40;;;;;;5049661;28;20091;-72
2021/06/10 12:28:31;;;;;;;1.10;0.65;;;35.60;32.30;;;;;;5052163;28;20104;-71
2021/06/10 12:31:12;;;;;;;0.85;0.55;;;35.70;31.80;;;;;;5069375;28;20479;-73
2021/06/10 12:33:40;;;;;;;2.17;0.50;;;35.70;31.60;;;;;;5069798;28;20043;-72
2021/06/10 12:36:30;;;;;;;1.55;0.60;;;35.50;31.60;;;;;;5070350;28;20033;-73
2021/06/10 12:39:01;;;;;;;2.10;0.68;;;35.40;31.40;;;;;;5072920;28;20071;-72
2021/06/10 12:41:35;;;;;;;2.30;0.60;;;35.60;31.50;;;;;;5084322;28;20048;-72
2021/06/10 12:44:17;;;;;;;2.30;0.70;;;35.60;31.10;;;;;;5069204;28;20025;-73
2021/06/10 12:46:55;;;;;;;;;;;35.50;31.30;;;;;;5067976;28;20033;-72
2021/06/10 12:49:38;;;;;;;2.30;0.60;;;35.30;29.60;;;;;;5085690;28;19916;-72
2021/06/10 12:52:11;;;;;;;1.35;0.55;;;34.80;31.10;;;;;;5071067;28;20035;-73
2021/06/10 12:54:37;;;;;;;0.90;0.60;;;34.90;32.30;;;;;;5043164;28;20079;-77
2021/06/10 12:57:03;;;;;;;2.45;0.65;;;35.10;31.40;;;;;;5059396;28;20128;-71